sensor_id;sensor_type;location;lat;lon;timestamp;P1;durP1;ratioP1;P2;durP2;ratioP2
24044;SDS011;26257;49.442;8.422;2022-07-18T00:01:00;11.65;;;2.50;;
24044;SDS011;26257;49.442;8.422;2022-07-18T00:03:25;10.40;;;3.38;;
24044;SDS011;26257;49.442;8.422;2022-07-18T00:05:51;7.43;;;2.55;;
24044;SDS011;26257;49.442;8.422;2022-07-18T00:08:17;7.93;;;2.15;;
24044;SDS011;26257;49.442;8.422;2022-07-18T00:10:43;7.82;;;2.22;;
24044;SDS011;26257;49.442;8.422;2022-07-18T00:13:08;7.43;;;2.30;;
24044;SDS011;26257;49.442;8.422;2022-07-18T00:15:35;9.60;;;2.17;;
24044;SDS011;26257;49.442;8.422;2022-07-18T00:18:00;4.57;;;1.85;;
24044;SDS011;26257;49.442;8.422;2022-07-18T00:20:26;7.07;;;2.40;;
24044;SDS011;26257;49.442;8.422;2022-07-18T00:22:51;7.68;;;1.80;;
24044;SDS011;26257;49.442;8.422;2022-07-18T00:25:17;6.35;;;2.20;;
24044;SDS011;26257;49.442;8.422;2022-07-18T00:27:42;12.48;;;2.47;;
24044;SDS011;26257;49.442;8.422;2022-07-18T00:30:08;8.68;;;2.15;;
24044;SDS011;26257;49.442;8.422;2022-07-18T00:32:34;8.63;;;2.35;;
24044;SDS011;26257;49.442;8.422;2022-07-18T00:34:59;6.50;;;2.20;;
24044;SDS011;26257;49.442;8.422;2022-07-18T00:37:25;6.88;;;2.40;;
24044;SDS011;26257;49.442;8.422;2022-07-18T00:39:50;8.55;;;2.72;;
24044;SDS011;26257;49.442;8.422;2022-07-18T00:42:16;11.90;;;2.63;;
24044;SDS011;26257;49.442;8.422;2022-07-18T00:44:41;7.60;;;3.20;;
24044;SDS011;26257;49.442;8.422;2022-07-18T00:47:07;13.30;;;3.72;;
24044;SDS011;26257;49.442;8.422;2022-07-18T00:49:32;15.32;;;4.07;;
24044;SDS011;26257;49.442;8.422;2022-07-18T00:51:58;14.32;;;3.95;;
24044;SDS011;26257;49.442;8.422;2022-07-18T00:54:23;9.00;;;3.58;;
24044;SDS011;26257;49.442;8.422;2022-07-18T00:56:49;14.82;;;5.13;;
24044;SDS011;26257;49.442;8.422;2022-07-18T00:59:15;14.10;;;5.40;;
24044;SDS011;26257;49.442;8.422;2022-07-18T01:01:41;17.10;;;4.88;;
24044;SDS011;26257;49.442;8.422;2022-07-18T01:06:43;12.65;;;4.10;;
24044;SDS011;26257;49.442;8.422;2022-07-18T01:09:09;9.88;;;3.60;;
24044;SDS011;26257;49.442;8.422;2022-07-18T01:11:35;10.00;;;3.15;;
24044;SDS011;26257;49.442;8.422;2022-07-18T01:14:05;9.65;;;3.17;;
24044;SDS011;26257;49.442;8.422;2022-07-18T01:16:32;11.27;;;3.53;;
24044;SDS011;26257;49.442;8.422;2022-07-18T01:18:58;11.32;;;3.28;;
24044;SDS011;26257;49.442;8.422;2022-07-18T01:21:24;5.93;;;2.78;;
24044;SDS011;26257;49.442;8.422;2022-07-18T01:23:49;9.85;;;3.47;;
24044;SDS011;26257;49.442;8.422;2022-07-18T01:26:15;8.65;;;2.65;;
24044;SDS011;26257;49.442;8.422;2022-07-18T01:28:42;9.25;;;2.65;;
24044;SDS011;26257;49.442;8.422;2022-07-18T01:31:08;6.55;;;2.30;;
24044;SDS011;26257;49.442;8.422;2022-07-18T01:33:34;9.15;;;2.80;;
24044;SDS011;26257;49.442;8.422;2022-07-18T01:35:59;10.65;;;2.60;;
24044;SDS011;26257;49.442;8.422;2022-07-18T01:38:29;6.63;;;2.25;;
24044;SDS011;26257;49.442;8.422;2022-07-18T01:40:56;8.93;;;2.47;;
24044;SDS011;26257;49.442;8.422;2022-07-18T01:43:23;7.07;;;2.08;;
24044;SDS011;26257;49.442;8.422;2022-07-18T01:45:49;7.78;;;3.00;;
24044;SDS011;26257;49.442;8.422;2022-07-18T01:48:14;24.65;;;7.88;;
24044;SDS011;26257;49.442;8.422;2022-07-18T01:50:40;50.75;;;18.38;;
24044;SDS011;26257;49.442;8.422;2022-07-18T01:53:06;68.20;;;24.02;;
24044;SDS011;26257;49.442;8.422;2022-07-18T01:55:31;81.95;;;29.80;;
24044;SDS011;26257;49.442;8.422;2022-07-18T01:57:57;39.67;;;14.70;;
24044;SDS011;26257;49.442;8.422;2022-07-18T02:00:22;65.32;;;26.52;;
24044;SDS011;26257;49.442;8.422;2022-07-18T02:02:47;62.50;;;23.77;;
24044;SDS011;26257;49.442;8.422;2022-07-18T02:05:13;42.47;;;13.30;;
24044;SDS011;26257;49.442;8.422;2022-07-18T02:07:39;48.30;;;17.33;;
24044;SDS011;26257;49.442;8.422;2022-07-18T02:10:11;39.75;;;14.48;;
24044;SDS011;26257;49.442;8.422;2022-07-18T02:12:46;36.97;;;13.15;;
24044;SDS011;26257;49.442;8.422;2022-07-18T02:15:13;28.63;;;9.93;;
24044;SDS011;26257;49.442;8.422;2022-07-18T02:17:39;20.90;;;8.73;;
24044;SDS011;26257;49.442;8.422;2022-07-18T02:20:06;21.98;;;8.77;;
24044;SDS011;26257;49.442;8.422;2022-07-18T02:22:34;13.95;;;4.00;;
24044;SDS011;26257;49.442;8.422;2022-07-18T02:25:00;14.50;;;3.70;;
24044;SDS011;26257;49.442;8.422;2022-07-18T02:27:26;13.05;;;3.92;;
24044;SDS011;26257;49.442;8.422;2022-07-18T02:29:52;11.45;;;4.32;;
24044;SDS011;26257;49.442;8.422;2022-07-18T02:32:17;9.27;;;3.17;;
24044;SDS011;26257;49.442;8.422;2022-07-18T02:34:43;9.50;;;3.20;;
24044;SDS011;26257;49.442;8.422;2022-07-18T02:37:09;7.72;;;3.50;;
24044;SDS011;26257;49.442;8.422;2022-07-18T02:39:36;11.07;;;4.00;;
24044;SDS011;26257;49.442;8.422;2022-07-18T02:42:02;11.50;;;3.75;;
24044;SDS011;26257;49.442;8.422;2022-07-18T02:44:27;11.48;;;2.58;;
24044;SDS011;26257;49.442;8.422;2022-07-18T02:46:53;7.30;;;3.10;;
24044;SDS011;26257;49.442;8.422;2022-07-18T02:49:19;13.98;;;6.45;;
24044;SDS011;26257;49.442;8.422;2022-07-18T02:51:54;11.98;;;4.93;;
24044;SDS011;26257;49.442;8.422;2022-07-18T02:54:20;15.60;;;5.13;;
24044;SDS011;26257;49.442;8.422;2022-07-18T02:56:46;10.43;;;5.45;;
24044;SDS011;26257;49.442;8.422;2022-07-18T02:59:11;11.40;;;4.20;;
24044;SDS011;26257;49.442;8.422;2022-07-18T03:01:37;20.50;;;7.47;;
24044;SDS011;26257;49.442;8.422;2022-07-18T03:04:02;22.02;;;6.45;;
24044;SDS011;26257;49.442;8.422;2022-07-18T03:06:28;23.73;;;7.93;;
24044;SDS011;26257;49.442;8.422;2022-07-18T03:08:53;11.95;;;4.90;;
24044;SDS011;26257;49.442;8.422;2022-07-18T03:11:19;14.70;;;4.35;;
24044;SDS011;26257;49.442;8.422;2022-07-18T03:13:44;19.42;;;8.05;;
24044;SDS011;26257;49.442;8.422;2022-07-18T03:16:09;25.52;;;10.45;;
24044;SDS011;26257;49.442;8.422;2022-07-18T03:18:35;21.13;;;10.23;;
24044;SDS011;26257;49.442;8.422;2022-07-18T03:21:00;23.55;;;8.88;;
24044;SDS011;26257;49.442;8.422;2022-07-18T03:23:26;12.73;;;5.55;;
24044;SDS011;26257;49.442;8.422;2022-07-18T03:25:51;14.18;;;5.05;;
24044;SDS011;26257;49.442;8.422;2022-07-18T03:28:16;13.27;;;5.20;;
24044;SDS011;26257;49.442;8.422;2022-07-18T03:30:42;8.40;;;2.95;;
24044;SDS011;26257;49.442;8.422;2022-07-18T03:33:07;10.95;;;3.30;;
24044;SDS011;26257;49.442;8.422;2022-07-18T03:35:33;12.75;;;2.97;;
24044;SDS011;26257;49.442;8.422;2022-07-18T03:37:58;24.70;;;8.35;;
24044;SDS011;26257;49.442;8.422;2022-07-18T03:40:23;31.15;;;11.40;;
24044;SDS011;26257;49.442;8.422;2022-07-18T03:42:49;52.20;;;19.23;;
24044;SDS011;26257;49.442;8.422;2022-07-18T03:45:14;79.07;;;28.60;;
24044;SDS011;26257;49.442;8.422;2022-07-18T03:47:40;27.23;;;10.75;;
24044;SDS011;26257;49.442;8.422;2022-07-18T03:50:05;12.85;;;3.35;;
24044;SDS011;26257;49.442;8.422;2022-07-18T03:52:31;9.30;;;2.65;;
24044;SDS011;26257;49.442;8.422;2022-07-18T03:54:57;14.75;;;3.22;;
24044;SDS011;26257;49.442;8.422;2022-07-18T03:57:22;6.38;;;2.50;;
24044;SDS011;26257;49.442;8.422;2022-07-18T03:59:47;10.45;;;2.88;;
24044;SDS011;26257;49.442;8.422;2022-07-18T04:02:13;10.93;;;2.90;;
24044;SDS011;26257;49.442;8.422;2022-07-18T04:04:38;8.82;;;3.00;;
24044;SDS011;26257;49.442;8.422;2022-07-18T04:07:04;10.07;;;2.60;;
24044;SDS011;26257;49.442;8.422;2022-07-18T04:09:29;9.00;;;2.97;;
24044;SDS011;26257;49.442;8.422;2022-07-18T04:11:54;6.75;;;3.08;;
24044;SDS011;26257;49.442;8.422;2022-07-18T04:14:20;12.75;;;2.92;;
24044;SDS011;26257;49.442;8.422;2022-07-18T04:16:47;5.93;;;2.17;;
24044;SDS011;26257;49.442;8.422;2022-07-18T04:19:13;8.25;;;2.50;;
24044;SDS011;26257;49.442;8.422;2022-07-18T04:21:39;11.38;;;3.00;;
24044;SDS011;26257;49.442;8.422;2022-07-18T04:24:04;8.45;;;2.92;;
24044;SDS011;26257;49.442;8.422;2022-07-18T04:26:30;5.40;;;2.20;;
24044;SDS011;26257;49.442;8.422;2022-07-18T04:28:55;9.90;;;2.72;;
24044;SDS011;26257;49.442;8.422;2022-07-18T04:31:21;9.27;;;2.72;;
24044;SDS011;26257;49.442;8.422;2022-07-18T04:33:46;10.13;;;3.15;;
24044;SDS011;26257;49.442;8.422;2022-07-18T04:36:11;10.45;;;2.10;;
24044;SDS011;26257;49.442;8.422;2022-07-18T04:38:37;9.82;;;2.70;;
24044;SDS011;26257;49.442;8.422;2022-07-18T04:41:03;7.05;;;2.50;;
24044;SDS011;26257;49.442;8.422;2022-07-18T04:43:29;10.68;;;3.25;;
24044;SDS011;26257;49.442;8.422;2022-07-18T04:45:55;11.18;;;3.35;;
24044;SDS011;26257;49.442;8.422;2022-07-18T04:48:21;13.75;;;2.78;;
24044;SDS011;26257;49.442;8.422;2022-07-18T04:50:46;11.57;;;2.72;;
24044;SDS011;26257;49.442;8.422;2022-07-18T04:53:12;7.57;;;2.75;;
24044;SDS011;26257;49.442;8.422;2022-07-18T04:55:37;11.40;;;3.67;;
24044;SDS011;26257;49.442;8.422;2022-07-18T04:58:03;9.73;;;3.22;;
24044;SDS011;26257;49.442;8.422;2022-07-18T05:00:29;9.70;;;2.80;;
24044;SDS011;26257;49.442;8.422;2022-07-18T05:02:55;9.25;;;3.17;;
24044;SDS011;26257;49.442;8.422;2022-07-18T05:05:22;5.43;;;2.22;;
24044;SDS011;26257;49.442;8.422;2022-07-18T05:07:49;6.57;;;2.30;;
24044;SDS011;26257;49.442;8.422;2022-07-18T05:10:16;8.85;;;2.35;;
24044;SDS011;26257;49.442;8.422;2022-07-18T05:12:43;5.32;;;2.45;;
24044;SDS011;26257;49.442;8.422;2022-07-18T05:15:12;6.22;;;2.30;;
24044;SDS011;26257;49.442;8.422;2022-07-18T05:17:39;6.55;;;1.98;;
24044;SDS011;26257;49.442;8.422;2022-07-18T05:20:05;6.28;;;2.42;;
24044;SDS011;26257;49.442;8.422;2022-07-18T05:22:33;8.68;;;2.38;;
24044;SDS011;26257;49.442;8.422;2022-07-18T05:24:59;8.20;;;2.50;;
24044;SDS011;26257;49.442;8.422;2022-07-18T05:27:25;10.02;;;2.80;;
24044;SDS011;26257;49.442;8.422;2022-07-18T05:29:50;5.20;;;2.25;;
24044;SDS011;26257;49.442;8.422;2022-07-18T05:32:16;6.75;;;1.98;;
24044;SDS011;26257;49.442;8.422;2022-07-18T05:34:41;8.80;;;2.28;;
24044;SDS011;26257;49.442;8.422;2022-07-18T05:37:07;10.05;;;3.22;;
24044;SDS011;26257;49.442;8.422;2022-07-18T05:39:32;16.65;;;7.00;;
24044;SDS011;26257;49.442;8.422;2022-07-18T05:41:58;7.53;;;2.70;;
24044;SDS011;26257;49.442;8.422;2022-07-18T05:44:23;5.50;;;2.35;;
24044;SDS011;26257;49.442;8.422;2022-07-18T05:46:49;7.60;;;2.22;;
24044;SDS011;26257;49.442;8.422;2022-07-18T05:49:14;6.55;;;2.92;;
24044;SDS011;26257;49.442;8.422;2022-07-18T05:51:40;15.40;;;7.15;;
24044;SDS011;26257;49.442;8.422;2022-07-18T05:54:06;10.23;;;3.30;;
24044;SDS011;26257;49.442;8.422;2022-07-18T05:56:31;12.48;;;3.28;;
24044;SDS011;26257;49.442;8.422;2022-07-18T05:58:57;10.82;;;3.15;;
24044;SDS011;26257;49.442;8.422;2022-07-18T06:01:22;10.85;;;3.58;;
24044;SDS011;26257;49.442;8.422;2022-07-18T06:03:48;6.78;;;2.72;;
24044;SDS011;26257;49.442;8.422;2022-07-18T06:06:14;7.63;;;3.13;;
24044;SDS011;26257;49.442;8.422;2022-07-18T06:08:40;8.90;;;3.20;;
24044;SDS011;26257;49.442;8.422;2022-07-18T06:11:05;9.10;;;3.25;;
24044;SDS011;26257;49.442;8.422;2022-07-18T06:13:34;11.63;;;3.35;;
24044;SDS011;26257;49.442;8.422;2022-07-18T06:16:02;9.48;;;4.35;;
24044;SDS011;26257;49.442;8.422;2022-07-18T06:18:28;11.80;;;3.72;;
24044;SDS011;26257;49.442;8.422;2022-07-18T06:20:53;11.23;;;3.80;;
24044;SDS011;26257;49.442;8.422;2022-07-18T06:23:19;8.15;;;3.55;;
24044;SDS011;26257;49.442;8.422;2022-07-18T06:25:44;11.90;;;3.97;;
24044;SDS011;26257;49.442;8.422;2022-07-18T06:28:09;17.02;;;4.35;;
24044;SDS011;26257;49.442;8.422;2022-07-18T06:30:35;8.48;;;4.00;;
24044;SDS011;26257;49.442;8.422;2022-07-18T06:33:00;7.50;;;4.20;;
24044;SDS011;26257;49.442;8.422;2022-07-18T06:35:29;10.27;;;3.75;;
24044;SDS011;26257;49.442;8.422;2022-07-18T06:37:55;10.13;;;2.95;;
24044;SDS011;26257;49.442;8.422;2022-07-18T06:40:20;11.82;;;3.30;;
24044;SDS011;26257;49.442;8.422;2022-07-18T06:42:50;13.13;;;3.75;;
24044;SDS011;26257;49.442;8.422;2022-07-18T06:45:16;10.23;;;4.68;;
24044;SDS011;26257;49.442;8.422;2022-07-18T06:47:41;13.23;;;3.65;;
24044;SDS011;26257;49.442;8.422;2022-07-18T06:50:07;11.88;;;3.70;;
24044;SDS011;26257;49.442;8.422;2022-07-18T06:52:32;8.93;;;3.20;;
24044;SDS011;26257;49.442;8.422;2022-07-18T06:54:58;15.88;;;3.80;;
24044;SDS011;26257;49.442;8.422;2022-07-18T06:57:25;8.77;;;3.20;;
24044;SDS011;26257;49.442;8.422;2022-07-18T06:59:51;14.20;;;3.55;;
24044;SDS011;26257;49.442;8.422;2022-07-18T07:02:18;10.95;;;3.10;;
24044;SDS011;26257;49.442;8.422;2022-07-18T07:04:44;7.53;;;3.17;;
24044;SDS011;26257;49.442;8.422;2022-07-18T07:07:09;9.05;;;2.85;;
24044;SDS011;26257;49.442;8.422;2022-07-18T07:09:35;10.90;;;3.20;;
24044;SDS011;26257;49.442;8.422;2022-07-18T07:12:00;13.18;;;2.90;;
24044;SDS011;26257;49.442;8.422;2022-07-18T07:14:26;9.82;;;2.90;;
24044;SDS011;26257;49.442;8.422;2022-07-18T07:16:51;10.80;;;3.35;;
24044;SDS011;26257;49.442;8.422;2022-07-18T07:19:18;9.00;;;3.03;;
24044;SDS011;26257;49.442;8.422;2022-07-18T07:21:43;7.18;;;3.10;;
24044;SDS011;26257;49.442;8.422;2022-07-18T07:24:08;9.65;;;2.90;;
24044;SDS011;26257;49.442;8.422;2022-07-18T07:26:34;8.88;;;3.33;;
24044;SDS011;26257;49.442;8.422;2022-07-18T07:28:59;11.90;;;3.38;;
24044;SDS011;26257;49.442;8.422;2022-07-18T07:31:25;8.80;;;3.00;;
24044;SDS011;26257;49.442;8.422;2022-07-18T07:33:50;13.50;;;3.85;;
24044;SDS011;26257;49.442;8.422;2022-07-18T07:36:16;10.93;;;3.35;;
24044;SDS011;26257;49.442;8.422;2022-07-18T07:38:41;13.00;;;2.80;;
24044;SDS011;26257;49.442;8.422;2022-07-18T07:41:06;10.15;;;3.13;;
24044;SDS011;26257;49.442;8.422;2022-07-18T07:43:32;11.10;;;3.22;;
24044;SDS011;26257;49.442;8.422;2022-07-18T07:45:58;12.00;;;3.70;;
24044;SDS011;26257;49.442;8.422;2022-07-18T07:48:23;11.85;;;3.63;;
24044;SDS011;26257;49.442;8.422;2022-07-18T07:50:49;9.70;;;3.05;;
24044;SDS011;26257;49.442;8.422;2022-07-18T07:53:16;13.52;;;3.30;;
24044;SDS011;26257;49.442;8.422;2022-07-18T07:55:41;13.02;;;3.47;;
24044;SDS011;26257;49.442;8.422;2022-07-18T07:58:07;12.98;;;3.83;;
24044;SDS011;26257;49.442;8.422;2022-07-18T08:00:32;14.25;;;3.13;;
24044;SDS011;26257;49.442;8.422;2022-07-18T08:03:02;17.35;;;3.00;;
24044;SDS011;26257;49.442;8.422;2022-07-18T08:05:30;8.00;;;3.28;;
24044;SDS011;26257;49.442;8.422;2022-07-18T08:07:58;10.48;;;3.05;;
24044;SDS011;26257;49.442;8.422;2022-07-18T08:10:24;13.35;;;3.00;;
24044;SDS011;26257;49.442;8.422;2022-07-18T08:12:51;10.38;;;2.85;;
24044;SDS011;26257;49.442;8.422;2022-07-18T08:15:17;15.60;;;3.80;;
24044;SDS011;26257;49.442;8.422;2022-07-18T08:17:43;10.65;;;2.92;;
24044;SDS011;26257;49.442;8.422;2022-07-18T08:20:09;14.35;;;3.33;;
24044;SDS011;26257;49.442;8.422;2022-07-18T08:22:36;7.93;;;2.47;;
24044;SDS011;26257;49.442;8.422;2022-07-18T08:25:16;8.43;;;2.17;;
24044;SDS011;26257;49.442;8.422;2022-07-18T08:27:43;7.80;;;2.20;;
24044;SDS011;26257;49.442;8.422;2022-07-18T08:30:09;8.88;;;2.72;;
24044;SDS011;26257;49.442;8.422;2022-07-18T08:32:35;9.05;;;2.38;;
24044;SDS011;26257;49.442;8.422;2022-07-18T08:35:01;8.63;;;2.40;;
24044;SDS011;26257;49.442;8.422;2022-07-18T08:37:26;15.68;;;2.60;;
24044;SDS011;26257;49.442;8.422;2022-07-18T08:39:52;10.38;;;3.45;;
24044;SDS011;26257;49.442;8.422;2022-07-18T08:42:17;10.10;;;2.65;;
24044;SDS011;26257;49.442;8.422;2022-07-18T08:44:48;8.43;;;3.13;;
24044;SDS011;26257;49.442;8.422;2022-07-18T08:47:14;10.00;;;2.65;;
24044;SDS011;26257;49.442;8.422;2022-07-18T08:49:44;10.35;;;2.92;;
24044;SDS011;26257;49.442;8.422;2022-07-18T08:52:10;9.63;;;2.53;;
24044;SDS011;26257;49.442;8.422;2022-07-18T08:54:35;7.00;;;2.50;;
24044;SDS011;26257;49.442;8.422;2022-07-18T08:57:01;11.57;;;2.33;;
24044;SDS011;26257;49.442;8.422;2022-07-18T08:59:27;8.77;;;2.78;;
24044;SDS011;26257;49.442;8.422;2022-07-18T09:01:52;6.88;;;2.65;;
24044;SDS011;26257;49.442;8.422;2022-07-18T09:04:37;10.13;;;2.50;;
24044;SDS011;26257;49.442;8.422;2022-07-18T09:07:04;8.48;;;2.53;;
24044;SDS011;26257;49.442;8.422;2022-07-18T09:09:33;9.52;;;2.80;;
24044;SDS011;26257;49.442;8.422;2022-07-18T09:12:01;8.02;;;2.40;;
24044;SDS011;26257;49.442;8.422;2022-07-18T09:14:29;8.07;;;2.05;;
24044;SDS011;26257;49.442;8.422;2022-07-18T09:17:10;11.87;;;3.80;;
24044;SDS011;26257;49.442;8.422;2022-07-18T09:19:41;7.67;;;3.30;;
24044;SDS011;26257;49.442;8.422;2022-07-18T09:22:18;7.95;;;2.20;;
24044;SDS011;26257;49.442;8.422;2022-07-18T09:24:52;7.68;;;2.17;;
24044;SDS011;26257;49.442;8.422;2022-07-18T09:27:29;6.60;;;2.40;;
24044;SDS011;26257;49.442;8.422;2022-07-18T09:32:37;6.45;;;2.38;;
24044;SDS011;26257;49.442;8.422;2022-07-18T09:35:05;12.07;;;2.15;;
24044;SDS011;26257;49.442;8.422;2022-07-18T09:37:38;4.53;;;1.77;;
24044;SDS011;26257;49.442;8.422;2022-07-18T09:40:41;6.82;;;2.17;;
24044;SDS011;26257;49.442;8.422;2022-07-18T09:43:02;6.38;;;2.38;;
24044;SDS011;26257;49.442;8.422;2022-07-18T09:45:33;10.25;;;2.03;;
24044;SDS011;26257;49.442;8.422;2022-07-18T09:48:20;7.07;;;1.88;;
24044;SDS011;26257;49.442;8.422;2022-07-18T09:50:57;9.52;;;2.08;;
24044;SDS011;26257;49.442;8.422;2022-07-18T09:53:25;6.22;;;2.05;;
24044;SDS011;26257;49.442;8.422;2022-07-18T10:16:19;6.53;;;2.30;;
24044;SDS011;26257;49.442;8.422;2022-07-18T10:18:44;4.63;;;2.05;;
24044;SDS011;26257;49.442;8.422;2022-07-18T10:21:13;9.15;;;2.08;;
24044;SDS011;26257;49.442;8.422;2022-07-18T10:23:41;4.82;;;1.88;;
24044;SDS011;26257;49.442;8.422;2022-07-18T10:26:19;6.65;;;2.15;;
24044;SDS011;26257;49.442;8.422;2022-07-18T10:34:09;5.20;;;1.63;;
24044;SDS011;26257;49.442;8.422;2022-07-18T10:36:37;6.78;;;1.75;;
24044;SDS011;26257;49.442;8.422;2022-07-18T10:47:05;4.80;;;1.77;;
24044;SDS011;26257;49.442;8.422;2022-07-18T10:57:33;4.90;;;1.55;;
24044;SDS011;26257;49.442;8.422;2022-07-18T11:00:01;5.85;;;1.73;;
24044;SDS011;26257;49.442;8.422;2022-07-18T11:02:40;6.32;;;1.60;;
24044;SDS011;26257;49.442;8.422;2022-07-18T11:21:04;5.63;;;1.90;;
24044;SDS011;26257;49.442;8.422;2022-07-18T11:23:44;7.57;;;2.00;;
24044;SDS011;26257;49.442;8.422;2022-07-18T11:26:14;5.07;;;1.58;;
24044;SDS011;26257;49.442;8.422;2022-07-18T11:28:42;5.80;;;1.73;;
24044;SDS011;26257;49.442;8.422;2022-07-18T11:31:08;5.63;;;1.83;;
24044;SDS011;26257;49.442;8.422;2022-07-18T11:33:36;6.60;;;2.10;;
24044;SDS011;26257;49.442;8.422;2022-07-18T11:36:07;5.55;;;1.55;;
24044;SDS011;26257;49.442;8.422;2022-07-18T11:38:33;3.78;;;1.67;;
24044;SDS011;26257;49.442;8.422;2022-07-18T11:41:00;3.03;;;1.40;;
24044;SDS011;26257;49.442;8.422;2022-07-18T11:43:27;4.25;;;1.80;;
24044;SDS011;26257;49.442;8.422;2022-07-18T11:48:24;3.60;;;1.65;;
24044;SDS011;26257;49.442;8.422;2022-07-18T11:50:50;6.53;;;1.52;;
24044;SDS011;26257;49.442;8.422;2022-07-18T11:53:15;3.63;;;1.60;;
24044;SDS011;26257;49.442;8.422;2022-07-18T11:55:41;4.75;;;1.75;;
24044;SDS011;26257;49.442;8.422;2022-07-18T11:58:10;4.55;;;1.80;;
24044;SDS011;26257;49.442;8.422;2022-07-18T12:00:37;9.60;;;4.90;;
24044;SDS011;26257;49.442;8.422;2022-07-18T12:03:11;5.97;;;2.47;;
24044;SDS011;26257;49.442;8.422;2022-07-18T12:05:37;4.68;;;1.50;;
24044;SDS011;26257;49.442;8.422;2022-07-18T12:11:18;4.88;;;2.10;;
24044;SDS011;26257;49.442;8.422;2022-07-18T12:16:38;7.22;;;5.57;;
24044;SDS011;26257;49.442;8.422;2022-07-18T12:19:09;5.53;;;3.03;;
24044;SDS011;26257;49.442;8.422;2022-07-18T12:22:04;7.07;;;1.70;;
24044;SDS011;26257;49.442;8.422;2022-07-18T12:30:07;3.85;;;1.73;;
24044;SDS011;26257;49.442;8.422;2022-07-18T12:35:20;3.30;;;1.60;;
24044;SDS011;26257;49.442;8.422;2022-07-18T12:37:53;3.63;;;1.77;;
24044;SDS011;26257;49.442;8.422;2022-07-18T12:40:19;4.70;;;1.70;;
24044;SDS011;26257;49.442;8.422;2022-07-18T12:42:44;4.88;;;1.90;;
24044;SDS011;26257;49.442;8.422;2022-07-18T12:45:10;5.32;;;1.83;;
24044;SDS011;26257;49.442;8.422;2022-07-18T12:47:38;3.92;;;1.73;;
24044;SDS011;26257;49.442;8.422;2022-07-18T12:50:07;3.50;;;1.30;;
24044;SDS011;26257;49.442;8.422;2022-07-18T12:54:59;5.00;;;1.80;;
24044;SDS011;26257;49.442;8.422;2022-07-18T12:57:25;3.88;;;1.73;;
24044;SDS011;26257;49.442;8.422;2022-07-18T12:59:51;4.55;;;1.60;;
24044;SDS011;26257;49.442;8.422;2022-07-18T13:02:17;4.43;;;1.67;;
24044;SDS011;26257;49.442;8.422;2022-07-18T13:04:42;18.10;;;12.55;;
24044;SDS011;26257;49.442;8.422;2022-07-18T13:07:08;4.97;;;2.65;;
24044;SDS011;26257;49.442;8.422;2022-07-18T13:09:34;6.15;;;2.03;;
24044;SDS011;26257;49.442;8.422;2022-07-18T13:11:59;6.32;;;1.70;;
24044;SDS011;26257;49.442;8.422;2022-07-18T13:14:25;4.47;;;1.83;;
24044;SDS011;26257;49.442;8.422;2022-07-18T13:16:51;5.03;;;1.85;;
24044;SDS011;26257;49.442;8.422;2022-07-18T13:19:17;3.75;;;1.60;;
24044;SDS011;26257;49.442;8.422;2022-07-18T13:21:44;5.50;;;1.75;;
24044;SDS011;26257;49.442;8.422;2022-07-18T13:24:11;4.82;;;1.65;;
24044;SDS011;26257;49.442;8.422;2022-07-18T13:26:37;4.15;;;2.05;;
24044;SDS011;26257;49.442;8.422;2022-07-18T13:29:03;3.15;;;1.58;;
24044;SDS011;26257;49.442;8.422;2022-07-18T13:31:29;3.55;;;1.65;;
24044;SDS011;26257;49.442;8.422;2022-07-18T13:33:55;6.38;;;4.75;;
24044;SDS011;26257;49.442;8.422;2022-07-18T13:36:21;10.85;;;5.30;;
24044;SDS011;26257;49.442;8.422;2022-07-18T13:38:46;21.42;;;16.30;;
24044;SDS011;26257;49.442;8.422;2022-07-18T13:41:12;5.90;;;2.40;;
24044;SDS011;26257;49.442;8.422;2022-07-18T13:43:38;6.60;;;3.97;;
24044;SDS011;26257;49.442;8.422;2022-07-18T13:46:09;5.50;;;1.60;;
24044;SDS011;26257;49.442;8.422;2022-07-18T13:48:36;4.25;;;1.42;;
24044;SDS011;26257;49.442;8.422;2022-07-18T13:51:02;4.05;;;1.58;;
24044;SDS011;26257;49.442;8.422;2022-07-18T13:53:28;5.25;;;1.88;;
24044;SDS011;26257;49.442;8.422;2022-07-18T13:55:53;3.90;;;1.55;;
24044;SDS011;26257;49.442;8.422;2022-07-18T13:58:19;4.60;;;1.77;;
24044;SDS011;26257;49.442;8.422;2022-07-18T14:00:44;3.47;;;1.73;;
24044;SDS011;26257;49.442;8.422;2022-07-18T14:03:11;8.35;;;2.70;;
24044;SDS011;26257;49.442;8.422;2022-07-18T14:05:37;4.40;;;1.63;;
24044;SDS011;26257;49.442;8.422;2022-07-18T14:08:03;4.50;;;1.50;;
24044;SDS011;26257;49.442;8.422;2022-07-18T14:10:30;3.97;;;1.60;;
24044;SDS011;26257;49.442;8.422;2022-07-18T14:12:55;4.97;;;2.08;;
24044;SDS011;26257;49.442;8.422;2022-07-18T14:15:21;4.43;;;1.70;;
24044;SDS011;26257;49.442;8.422;2022-07-18T14:17:47;5.40;;;2.13;;
24044;SDS011;26257;49.442;8.422;2022-07-18T14:20:12;5.43;;;2.13;;
24044;SDS011;26257;49.442;8.422;2022-07-18T14:22:39;5.22;;;2.15;;
24044;SDS011;26257;49.442;8.422;2022-07-18T14:25:05;5.82;;;1.75;;
24044;SDS011;26257;49.442;8.422;2022-07-18T14:27:32;5.28;;;1.83;;
24044;SDS011;26257;49.442;8.422;2022-07-18T14:29:58;5.75;;;1.58;;
24044;SDS011;26257;49.442;8.422;2022-07-18T14:32:24;4.72;;;1.80;;
24044;SDS011;26257;49.442;8.422;2022-07-18T14:34:50;13.43;;;2.70;;
24044;SDS011;26257;49.442;8.422;2022-07-18T14:37:16;3.72;;;1.73;;
24044;SDS011;26257;49.442;8.422;2022-07-18T14:39:42;10.70;;;7.85;;
24044;SDS011;26257;49.442;8.422;2022-07-18T14:42:08;10.18;;;6.05;;
24044;SDS011;26257;49.442;8.422;2022-07-18T14:44:33;5.97;;;2.80;;
24044;SDS011;26257;49.442;8.422;2022-07-18T14:46:59;4.72;;;2.85;;
24044;SDS011;26257;49.442;8.422;2022-07-18T14:49:24;4.80;;;2.42;;
24044;SDS011;26257;49.442;8.422;2022-07-18T14:51:49;4.28;;;1.80;;
24044;SDS011;26257;49.442;8.422;2022-07-18T14:54:15;3.85;;;1.52;;
24044;SDS011;26257;49.442;8.422;2022-07-18T14:56:40;6.35;;;2.33;;
24044;SDS011;26257;49.442;8.422;2022-07-18T14:59:06;10.32;;;6.38;;
24044;SDS011;26257;49.442;8.422;2022-07-18T15:01:31;6.97;;;2.10;;
24044;SDS011;26257;49.442;8.422;2022-07-18T15:03:57;3.30;;;1.55;;
24044;SDS011;26257;49.442;8.422;2022-07-18T15:06:23;7.05;;;1.80;;
24044;SDS011;26257;49.442;8.422;2022-07-18T15:08:49;4.78;;;2.78;;
24044;SDS011;26257;49.442;8.422;2022-07-18T15:11:14;4.18;;;2.25;;
24044;SDS011;26257;49.442;8.422;2022-07-18T15:13:43;3.90;;;1.70;;
24044;SDS011;26257;49.442;8.422;2022-07-18T15:16:09;8.82;;;2.08;;
24044;SDS011;26257;49.442;8.422;2022-07-18T15:18:34;4.85;;;2.10;;
24044;SDS011;26257;49.442;8.422;2022-07-18T15:21:00;3.47;;;1.67;;
24044;SDS011;26257;49.442;8.422;2022-07-18T15:23:25;7.82;;;2.00;;
24044;SDS011;26257;49.442;8.422;2022-07-18T15:25:50;5.10;;;1.65;;
24044;SDS011;26257;49.442;8.422;2022-07-18T15:28:16;4.72;;;1.85;;
24044;SDS011;26257;49.442;8.422;2022-07-18T15:30:41;5.63;;;2.15;;
24044;SDS011;26257;49.442;8.422;2022-07-18T15:33:07;4.38;;;1.70;;
24044;SDS011;26257;49.442;8.422;2022-07-18T15:35:32;3.70;;;1.70;;
24044;SDS011;26257;49.442;8.422;2022-07-18T15:37:57;7.07;;;1.90;;
24044;SDS011;26257;49.442;8.422;2022-07-18T15:40:23;13.48;;;10.25;;
24044;SDS011;26257;49.442;8.422;2022-07-18T15:42:48;9.15;;;3.53;;
24044;SDS011;26257;49.442;8.422;2022-07-18T15:45:14;6.90;;;2.42;;
24044;SDS011;26257;49.442;8.422;2022-07-18T15:47:39;4.28;;;2.15;;
24044;SDS011;26257;49.442;8.422;2022-07-18T15:50:05;4.70;;;2.50;;
24044;SDS011;26257;49.442;8.422;2022-07-18T15:52:31;4.63;;;1.85;;
24044;SDS011;26257;49.442;8.422;2022-07-18T15:54:58;4.68;;;1.95;;
24044;SDS011;26257;49.442;8.422;2022-07-18T16:16:33;6.75;;;1.90;;
24044;SDS011;26257;49.442;8.422;2022-07-18T16:18:58;9.18;;;2.10;;
24044;SDS011;26257;49.442;8.422;2022-07-18T16:21:24;6.35;;;1.80;;